GMMC/CAS METAR and TAF weather

Enter ICAO airport designator
Station Type Date Time Source
GMMC METAR 2019/10/20 18:00 UTC NOAA

GMMC 201800Z 36006KT 9999 SCT016TCU BKN200 19/12 Q1016


Station Type Date Time Source
GMMC Decoded METAR 2019/10/20 18:00 UTC NOAA

Casablanca, Morocco (GMMC) 33-34N 007-40W 62M
Oct 20, 2019 - 02:00 PM EDT / 2019.10.20 1800 UTC
Wind: from the N (360 degrees) at 7 MPH (6 KT):0
Visibility: greater than 7 mile(s):0
Sky conditions: mostly cloudy
Weather: Towering cumulus clouds observed
Temperature: 66 F (19 C)
Dew Point: 53 F (12 C)
Relative Humidity: 63%
Pressure (altimeter): 30.00 in. Hg (1016 hPa)
ob: GMMC 201800Z 36006KT 9999 SCT016TCU BKN200 19/12 Q1016
cycle: 18

Station Type Date Time Source
GMMC TAF 2016/05/22 17:00 UTC NOAA

FTMC31 GMMC 221700 RRA TAF LPPT 221700Z 2218/2324 34013KT CAVOK
BECMG 2221/2224 34007KT
BECMG 2310/2312 VRB03KT

Example: see airport list